createdAt,value
2016-02-16T00:00:32.261Z,0
2016-02-16T00:01:32.342Z,0
2016-02-16T00:02:32.283Z,0
2016-02-16T00:03:32.427Z,0
2016-02-16T00:04:32.476Z,0
2016-02-16T00:05:32.557Z,0
2016-02-16T00:06:32.575Z,0
2016-02-16T00:07:32.640Z,0
2016-02-16T00:08:32.690Z,0
2016-02-16T00:09:32.724Z,0
2016-02-16T00:10:32.789Z,0
2016-02-16T00:11:32.854Z,0
2016-02-16T00:12:32.888Z,0
2016-02-16T00:13:32.968Z,0
2016-02-16T00:14:32.987Z,0
2016-02-16T00:15:33.052Z,0
2016-02-16T00:16:33.102Z,0
2016-02-16T00:17:33.167Z,0
2016-02-16T00:18:33.185Z,0
2016-02-16T00:19:33.265Z,0
2016-02-16T00:20:33.394Z,0
2016-02-16T00:21:33.381Z,0
2016-02-16T00:22:33.399Z,0
2016-02-16T00:23:33.465Z,0
2016-02-16T00:24:33.498Z,0
2016-02-16T00:25:33.564Z,0
2016-02-16T00:26:33.598Z,0
2016-02-16T00:27:33.678Z,0
2016-02-16T00:28:33.697Z,0
2016-02-16T00:29:33.778Z,0
2016-02-16T00:30:33.827Z,0
2016-02-16T00:31:33.877Z,0
2016-02-16T00:32:33.910Z,0
2016-02-16T00:33:33.976Z,0
2016-02-16T00:34:33.275Z,0
2016-02-16T00:35:34.075Z,0
2016-02-16T00:36:34.108Z,0
2016-02-16T00:37:34.205Z,0
2016-02-16T00:38:34.208Z,0
2016-02-16T00:39:34.274Z,0
2016-02-16T00:40:34.322Z,0
2016-02-16T00:41:34.388Z,0
2016-02-16T00:42:34.282Z,0
2016-02-16T00:43:34.488Z,0
2016-02-16T00:44:34.568Z,0
2016-02-16T00:45:33.821Z,0
2016-02-16T00:46:34.651Z,0
2016-02-16T00:47:34.701Z,0
2016-02-16T00:48:34.735Z,0
2016-02-16T00:49:34.784Z,0
2016-02-16T00:50:34.849Z,0
2016-02-16T00:51:34.899Z,0
2016-02-16T00:52:34.995Z,0
2016-02-16T00:53:35.092Z,0
2016-02-16T00:54:35.064Z,0
2016-02-16T00:55:35.097Z,0
2016-02-16T00:56:35.163Z,0
2016-02-16T00:57:35.212Z,0
2016-02-16T00:58:35.261Z,0
2016-02-16T00:59:35.295Z,0
2016-02-16T01:00:35.361Z,0
2016-02-16T01:01:35.395Z,0
2016-02-16T01:02:35.461Z,0
2016-02-16T01:03:35.525Z,0
2016-02-16T01:04:35.091Z,0
2016-02-16T01:05:35.608Z,0
2016-02-16T01:06:35.705Z,0
2016-02-16T01:07:35.724Z,0
2016-02-16T01:08:35.773Z,0
2016-02-16T01:09:35.838Z,0
2016-02-16T01:10:35.934Z,0
2016-02-16T01:11:35.921Z,0
2016-02-16T01:12:36.002Z,0
2016-02-16T01:13:36.036Z,0
2016-02-16T01:14:36.071Z,0
2016-02-16T01:15:36.135Z,0
2016-02-16T01:16:36.169Z,0
2016-02-16T01:17:36.265Z,0
2016-02-16T01:18:36.268Z,0
2016-02-16T01:19:36.319Z,0
2016-02-16T01:20:36.415Z,0
2016-02-16T01:21:36.464Z,0
2016-02-16T01:22:36.498Z,0
2016-02-16T01:23:36.562Z,0
2016-02-16T01:24:36.598Z,0
2016-02-16T01:25:36.648Z,0
2016-02-16T01:26:36.696Z,0
2016-02-16T01:27:36.762Z,0
2016-02-16T01:28:36.811Z,0
2016-02-16T01:29:36.876Z,0
2016-02-16T01:30:36.942Z,0
2016-02-16T01:31:36.210Z,0
2016-02-16T01:32:37.009Z,0
2016-02-16T01:33:37.059Z,0
2016-02-16T01:34:37.108Z,0
2016-02-16T01:35:37.174Z,0
2016-02-16T01:36:37.207Z,0
2016-02-16T01:37:37.273Z,0
2016-02-16T01:38:37.197Z,0
2016-02-16T01:39:37.372Z,0
2016-02-16T01:40:37.405Z,0
2016-02-16T01:41:37.502Z,0
2016-02-16T01:42:37.521Z,0
2016-02-16T01:43:37.586Z,0
2016-02-16T01:44:37.605Z,0
2016-02-16T01:45:37.685Z,0
2016-02-16T01:46:37.734Z,0
2016-02-16T01:47:37.800Z,0
2016-02-16T01:48:37.818Z,0
2016-02-16T01:49:37.899Z,0
2016-02-16T01:50:37.933Z,0
2016-02-16T01:51:37.998Z,0
2016-02-16T01:52:38.032Z,0
2016-02-16T01:53:38.113Z,0
2016-02-16T01:54:38.131Z,0
2016-02-16T01:55:38.212Z,0
2016-02-16T01:56:38.231Z,0
2016-02-16T01:57:38.311Z,0
2016-02-16T01:58:38.345Z,0
2016-02-16T01:59:38.394Z,0
2016-02-16T02:00:38.444Z,0
2016-02-16T02:01:38.509Z,0
2016-02-16T02:02:38.543Z,0
2016-02-16T02:03:38.624Z,0
2016-02-16T02:04:38.659Z,0
2016-02-16T02:05:38.709Z,0
2016-02-16T02:06:38.774Z,0
2016-02-16T02:07:38.823Z,0
2016-02-16T02:08:38.873Z,0
2016-02-16T02:09:38.937Z,0
2016-02-16T02:10:38.973Z,0
2016-02-16T02:11:39.022Z,0
2016-02-16T02:12:39.087Z,0
2016-02-16T02:13:39.105Z,0
2016-02-16T02:14:39.186Z,0
2016-02-16T02:15:39.236Z,0
2016-02-16T02:16:39.285Z,0
2016-02-16T02:17:39.319Z,0
2016-02-16T02:18:39.384Z,0
2016-02-16T02:19:39.418Z,0
2016-02-16T02:20:39.499Z,0
2016-02-16T02:21:39.533Z,0
2016-02-16T02:22:39.582Z,0
2016-02-16T02:23:39.633Z,0
2016-02-16T02:24:39.697Z,0
2016-02-16T02:25:39.762Z,0
2016-02-16T02:26:39.624Z,0
2016-02-16T02:27:39.861Z,0
2016-02-16T02:28:39.739Z,0
2016-02-16T02:29:39.961Z,0
2016-02-16T02:30:40.010Z,0
2016-02-16T02:31:40.075Z,0
2016-02-16T02:32:40.093Z,0
2016-02-16T02:33:40.160Z,0
2016-02-16T02:34:40.193Z,0
2016-02-16T02:35:40.258Z,0
2016-02-16T02:36:40.323Z,0
2016-02-16T02:37:40.342Z,0
2016-02-16T02:38:40.469Z,0
2016-02-16T02:39:40.473Z,0
2016-02-16T02:40:40.553Z,0
2016-02-16T02:41:40.571Z,0
2016-02-16T02:42:40.636Z,0
2016-02-16T02:43:40.654Z,0
2016-02-16T02:44:40.547Z,0
2016-02-16T02:45:40.800Z,0
2016-02-16T02:46:40.820Z,0
2016-02-16T02:47:40.869Z,0
2016-02-16T02:48:40.902Z,0
2016-02-16T02:49:40.983Z,0
2016-02-16T02:50:40.876Z,0
2016-02-16T02:51:41.098Z,0
2016-02-16T02:52:41.117Z,0
2016-02-16T02:53:41.213Z,0
2016-02-16T02:54:41.230Z,0
2016-02-16T02:55:41.311Z,0
2016-02-16T02:56:41.346Z,0
2016-02-16T02:57:41.396Z,0
2016-02-16T02:58:41.445Z,0
2016-02-16T02:59:41.494Z,0
2016-02-16T03:00:41.560Z,0
2016-02-16T03:01:41.609Z,0
2016-02-16T03:02:41.643Z,0
2016-02-16T03:03:41.708Z,0
2016-02-16T03:04:41.795Z,0
2016-02-16T03:05:41.813Z,0
2016-02-16T03:06:41.847Z,0
2016-02-16T03:07:41.912Z,0
2016-02-16T03:08:41.963Z,0
2016-02-16T03:09:42.012Z,0
2016-02-16T03:10:42.093Z,0
2016-02-16T03:11:42.110Z,0
2016-02-16T03:12:42.176Z,0
2016-02-16T03:13:42.226Z,0
2016-02-16T03:14:42.276Z,0
2016-02-16T03:15:42.340Z,0
2016-02-16T03:16:42.390Z,0
2016-02-16T03:17:42.408Z,0
2016-02-16T03:18:42.489Z,0
2016-02-16T03:19:42.539Z,0
2016-02-16T03:20:42.573Z,0
2016-02-16T03:21:42.607Z,0
2016-02-16T03:22:42.484Z,0
2016-02-16T03:23:42.705Z,0
2016-02-16T03:24:42.755Z,0
2016-02-16T03:25:42.805Z,0
2016-02-16T03:26:42.854Z,0
2016-02-16T03:27:42.904Z,0
2016-02-16T03:28:42.969Z,0
2016-02-16T03:29:43.018Z,0
2016-02-16T03:30:43.052Z,0
2016-02-16T03:31:43.117Z,0
2016-02-16T03:32:43.167Z,0
2016-02-16T03:33:43.186Z,0
2016-02-16T03:34:43.250Z,0
2016-02-16T03:35:43.316Z,0
2016-02-16T03:36:43.349Z,0
2016-02-16T03:37:43.416Z,0
2016-02-16T03:38:43.449Z,0
2016-02-16T03:39:43.514Z,0
2016-02-16T03:40:43.563Z,0
2016-02-16T03:41:43.613Z,0
2016-02-16T03:42:43.678Z,0
2016-02-16T03:43:43.728Z,0
2016-02-16T03:44:43.777Z,0
2016-02-16T03:45:43.827Z,0
2016-02-16T03:46:43.892Z,0
2016-02-16T03:47:43.910Z,0
2016-02-16T03:48:43.991Z,0
2016-02-16T03:49:44.057Z,0
2016-02-16T03:50:44.091Z,0
2016-02-16T03:51:44.156Z,0
2016-02-16T03:52:44.189Z,0
2016-02-16T03:53:44.223Z,0
2016-02-16T03:54:44.304Z,0
2016-02-16T03:55:44.339Z,0
2016-02-16T03:56:44.389Z,0
2016-02-16T03:57:44.453Z,0
2016-02-16T03:58:44.502Z,0
2016-02-16T03:59:44.552Z,0
2016-02-16T04:00:44.617Z,0
2016-02-16T04:01:44.683Z,0
2016-02-16T04:02:44.701Z,0
2016-02-16T04:03:44.797Z,0
2016-02-16T04:04:44.816Z,0
2016-02-16T04:05:44.865Z,0
2016-02-16T04:06:44.915Z,0
2016-02-16T04:07:44.964Z,0
2016-02-16T04:08:45.013Z,0
2016-02-16T04:09:45.079Z,0
2016-02-16T04:10:45.129Z,0
2016-02-16T04:11:45.163Z,0
2016-02-16T04:12:45.213Z,0
2016-02-16T04:13:45.277Z,0
2016-02-16T04:14:45.326Z,0
2016-02-16T04:15:45.377Z,0
2016-02-16T04:16:44.520Z,0
2016-02-16T04:17:45.460Z,0
2016-02-16T04:18:45.541Z,0
2016-02-16T04:19:45.575Z,0
2016-02-16T04:20:45.624Z,0
2016-02-16T04:21:45.706Z,0
2016-02-16T04:22:45.740Z,0
2016-02-16T04:23:45.773Z,0
2016-02-16T04:24:45.853Z,0
2016-02-16T04:25:45.904Z,0
2016-02-16T04:26:45.937Z,0
2016-02-16T04:27:46.003Z,0
2016-02-16T04:28:46.053Z,0
2016-02-16T04:29:46.117Z,0
2016-02-16T04:30:46.148Z,0
2016-02-16T04:31:46.202Z,0
2016-02-16T04:32:46.238Z,0
2016-02-16T04:33:46.274Z,0
2016-02-16T04:34:46.311Z,0
2016-02-16T04:35:46.348Z,0
2016-02-16T04:36:46.393Z,0
2016-02-16T04:37:46.423Z,0
2016-02-16T04:38:46.498Z,0
2016-02-16T04:39:46.543Z,0
2016-02-16T04:40:46.588Z,0
2016-02-16T04:41:45.886Z,0
2016-02-16T04:42:46.669Z,0
2016-02-16T04:43:46.732Z,0
2016-02-16T04:44:46.779Z,0
2016-02-16T04:45:46.829Z,0
2016-02-16T04:46:46.861Z,0
2016-02-16T04:47:46.926Z,0
2016-02-16T04:48:46.974Z,0
2016-02-16T04:49:47.023Z,0
2016-02-16T04:50:47.103Z,0
2016-02-16T04:51:47.138Z,0
2016-02-16T04:52:47.188Z,0
2016-02-16T04:53:47.252Z,0
2016-02-16T04:54:47.317Z,0
2016-02-16T04:55:47.351Z,0
2016-02-16T04:56:47.385Z,0
2016-02-16T04:57:47.450Z,0
2016-02-16T04:58:47.515Z,0
2016-02-16T04:59:47.549Z,0
2016-02-16T05:00:47.599Z,0
2016-02-16T05:01:47.664Z,0
2016-02-16T05:02:47.714Z,0
2016-02-16T05:03:47.763Z,0
2016-02-16T05:04:47.813Z,0
2016-02-16T05:05:47.863Z,0
2016-02-16T05:06:47.928Z,0
2016-02-16T05:07:47.977Z,0
2016-02-16T05:08:48.012Z,0
2016-02-16T05:09:48.092Z,0
2016-02-16T05:10:48.126Z,0
2016-02-16T05:11:48.003Z,0
2016-02-16T05:12:48.241Z,0
2016-02-16T05:13:48.275Z,0
2016-02-16T05:14:48.325Z,0
2016-02-16T05:15:48.374Z,0
2016-02-16T05:16:48.423Z,0
2016-02-16T05:17:48.473Z,0
2016-02-16T05:18:48.538Z,0
2016-02-16T05:19:48.572Z,0
2016-02-16T05:20:48.637Z,0
2016-02-16T05:21:48.686Z,0
2016-02-16T05:22:48.736Z,0
2016-02-16T05:23:48.786Z,0
2016-02-16T05:24:48.867Z,0
2016-02-16T05:25:48.901Z,0
2016-02-16T05:26:48.966Z,0
2016-02-16T05:27:49.000Z,0
2016-02-16T05:28:49.065Z,0
2016-02-16T05:29:48.349Z,0
2016-02-16T05:30:49.165Z,0
2016-02-16T05:31:49.199Z,0
2016-02-16T05:32:49.295Z,0
2016-02-16T05:33:49.297Z,0
2016-02-16T05:34:49.378Z,0
2016-02-16T05:35:49.412Z,0
2016-02-16T05:36:49.462Z,0
2016-02-16T05:37:49.512Z,0
2016-02-16T05:38:49.592Z,0
2016-02-16T05:39:49.609Z,0
2016-02-16T05:40:49.660Z,0
2016-02-16T05:41:49.725Z,0
2016-02-16T05:42:49.758Z,0
2016-02-16T05:43:49.824Z,0
2016-02-16T05:44:49.733Z,0
2016-02-16T05:45:49.939Z,0
2016-02-16T05:46:49.973Z,0
2016-02-16T05:47:50.023Z,0
2016-02-16T05:48:50.103Z,0
2016-02-16T05:49:50.136Z,0
2016-02-16T05:50:50.202Z,0
2016-02-16T05:51:50.236Z,0
2016-02-16T05:52:50.286Z,0
2016-02-16T05:53:50.335Z,0
2016-02-16T05:54:50.400Z,0
2016-02-16T05:55:50.435Z,0
2016-02-16T05:56:50.484Z,0
2016-02-16T05:57:50.566Z,0
2016-02-16T05:58:50.599Z,0
2016-02-16T05:59:50.663Z,0
2016-02-16T06:00:50.699Z,0
2016-02-16T06:01:50.748Z,0
2016-02-16T06:02:50.829Z,0
2016-02-16T06:03:50.846Z,0
2016-02-16T06:04:50.849Z,0
2016-02-16T06:05:50.963Z,0
2016-02-16T06:06:51.027Z,0
2016-02-16T06:07:51.061Z,0
2016-02-16T06:08:51.142Z,0
2016-02-16T06:09:51.160Z,0
2016-02-16T06:10:51.241Z,0
2016-02-16T06:11:51.260Z,0
2016-02-16T06:12:51.324Z,0
2016-02-16T06:13:51.374Z,0
2016-02-16T06:14:51.424Z,0
2016-02-16T06:15:51.458Z,0
2016-02-16T06:16:51.523Z,0
2016-02-16T06:17:51.604Z,0
2016-02-16T06:18:51.623Z,0
2016-02-16T06:19:51.703Z,0
2016-02-16T06:20:51.737Z,0
2016-02-16T06:21:51.786Z,0
2016-02-16T06:22:51.837Z,0
2016-02-16T06:23:51.901Z,0
2016-02-16T06:24:51.935Z,0
2016-02-16T06:25:52.000Z,0
2016-02-16T06:26:52.034Z,0
2016-02-16T06:27:52.147Z,0
2016-02-16T06:28:52.149Z,0
2016-02-16T06:29:52.198Z,0
2016-02-16T06:30:52.092Z,0
2016-02-16T06:31:52.313Z,0
2016-02-16T06:32:52.348Z,0
2016-02-16T06:33:52.413Z,0
2016-02-16T06:34:52.478Z,0
2016-02-16T06:35:52.512Z,0
2016-02-16T06:36:52.578Z,0
2016-02-16T06:37:52.610Z,0
2016-02-16T06:38:52.692Z,0
2016-02-16T06:39:52.710Z,0
2016-02-16T06:40:52.760Z,0
2016-02-16T06:41:52.809Z,0
2016-02-16T06:42:52.749Z,0
2016-02-16T06:43:52.908Z,0
2016-02-16T06:44:52.973Z,0
2016-02-16T06:45:53.038Z,0
2016-02-16T06:46:53.088Z,0
2016-02-16T06:47:53.106Z,0
2016-02-16T06:48:53.188Z,0
2016-02-16T06:49:53.221Z,0
2016-02-16T06:50:53.287Z,0
2016-02-16T06:51:53.320Z,0
2016-02-16T06:52:53.417Z,0
2016-02-16T06:53:53.435Z,0
2016-02-16T06:54:53.516Z,0
2016-02-16T06:55:53.535Z,0
2016-02-16T06:56:53.600Z,0
2016-02-16T06:57:53.634Z,0
2016-02-16T06:58:53.714Z,0
2016-02-16T06:59:53.748Z,0
2016-02-16T07:00:53.829Z,0
2016-02-16T07:01:53.831Z,0
2016-02-16T07:02:53.928Z,0
2016-02-16T07:03:53.947Z,0
2016-02-16T07:04:54.027Z,0
2016-02-16T07:05:54.045Z,0
2016-02-16T07:06:54.111Z,0
2016-02-16T07:07:54.175Z,0
2016-02-16T07:08:54.225Z,0
2016-02-16T07:09:54.260Z,0
2016-02-16T07:10:54.341Z,0
2016-02-16T07:11:54.358Z,0
2016-02-16T07:12:54.408Z,0
2016-02-16T07:13:54.474Z,0
2016-02-16T07:14:54.523Z,0
2016-02-16T07:15:54.588Z,0
2016-02-16T07:16:54.654Z,0
2016-02-16T07:17:54.671Z,0
2016-02-16T07:18:54.752Z,0
2016-02-16T07:19:54.787Z,0
2016-02-16T07:20:54.882Z,0
2016-02-16T07:21:54.885Z,0
2016-02-16T07:22:54.934Z,0
2016-02-16T07:23:54.985Z,0
2016-02-16T07:24:55.034Z,0
2016-02-16T07:25:55.099Z,0
2016-02-16T07:26:55.134Z,0
2016-02-16T07:27:55.184Z,0
2016-02-16T07:28:55.154Z,0
2016-02-16T07:29:55.298Z,0
2016-02-16T07:30:55.363Z,0
2016-02-16T07:31:55.397Z,0
2016-02-16T07:32:55.478Z,0
2016-02-16T07:33:55.495Z,0
2016-02-16T07:34:55.577Z,0
2016-02-16T07:35:55.611Z,0
2016-02-16T07:36:55.675Z,0
2016-02-16T07:37:55.710Z,0
2016-02-16T07:38:55.775Z,0
2016-02-16T07:39:55.809Z,0
2016-02-16T07:40:55.874Z,0
2016-02-16T07:41:55.908Z,0
2016-02-16T07:42:55.973Z,0
2016-02-16T07:43:56.008Z,0
2016-02-16T07:44:56.072Z,0
2016-02-16T07:45:56.122Z,0
2016-02-16T07:46:56.171Z,0
2016-02-16T07:47:56.252Z,0
2016-02-16T07:48:56.255Z,0
2016-02-16T07:49:56.321Z,0
2016-02-16T07:50:56.229Z,0
2016-02-16T07:51:56.419Z,0
2016-02-16T07:52:56.485Z,0
2016-02-16T07:53:56.518Z,0
2016-02-16T07:54:56.584Z,0
2016-02-16T07:55:56.618Z,0
2016-02-16T07:56:56.682Z,0
2016-02-16T07:57:56.732Z,0
2016-02-16T07:58:56.782Z,0
2016-02-16T07:59:56.831Z,0
2016-02-16T08:00:56.928Z,0
2016-02-16T08:01:56.931Z,0
2016-02-16T08:02:56.980Z,5
2016-02-16T08:03:56.296Z,5
2016-02-16T08:04:57.079Z,20
2016-02-16T08:05:57.145Z,40
2016-02-16T08:06:57.225Z,60
2016-02-16T08:07:57.228Z,65
2016-02-16T08:08:57.293Z,65
2016-02-16T08:09:57.359Z,65
2016-02-16T08:10:57.377Z,60
2016-02-16T08:11:57.458Z,60
2016-02-16T08:12:57.476Z,60
2016-02-16T08:13:57.526Z,55
2016-02-16T08:14:57.575Z,55
2016-02-16T08:15:57.655Z,50
2016-02-16T08:16:57.658Z,50
2016-02-16T08:17:57.771Z,45
2016-02-16T08:18:57.789Z,40
2016-02-16T08:19:57.698Z,35
2016-02-16T08:20:57.888Z,35
2016-02-16T08:21:57.968Z,30
2016-02-16T08:22:57.971Z,20
2016-02-16T08:23:58.052Z,15
2016-02-16T08:24:58.071Z,15
2016-02-16T08:25:58.151Z,10
2016-02-16T08:26:58.154Z,10
2016-02-16T08:27:58.235Z,5
2016-02-16T08:28:58.301Z,5
2016-02-16T08:29:58.303Z,5
2016-02-16T08:30:58.399Z,5
2016-02-16T08:31:58.401Z,5
2016-02-16T08:32:58.498Z,5
2016-02-16T08:33:58.517Z,0
2016-02-16T08:34:58.581Z,0
2016-02-16T08:35:58.616Z,0
2016-02-16T08:36:58.697Z,0
2016-02-16T08:37:58.715Z,0
2016-02-16T08:38:58.795Z,0
2016-02-16T08:39:58.798Z,0
2016-02-16T08:40:58.880Z,0
2016-02-16T08:41:58.913Z,0
2016-02-16T08:42:58.947Z,0
2016-02-16T08:43:58.997Z,0
2016-02-16T08:44:59.061Z,0
2016-02-16T08:45:59.097Z,0
2016-02-16T08:46:59.146Z,0
2016-02-16T08:47:59.227Z,0
2016-02-16T08:48:59.230Z,0
2016-02-16T08:49:59.310Z,0
2016-02-16T08:50:59.374Z,0
2016-02-16T08:51:59.393Z,0
2016-02-16T08:52:59.427Z,0
2016-02-16T08:53:59.508Z,0
2016-02-16T08:54:59.526Z,0
2016-02-16T08:55:59.576Z,0
2016-02-16T08:56:59.626Z,0
2016-02-16T08:57:59.690Z,0
2016-02-16T08:58:59.741Z,0
2016-02-16T09:00:00.306Z,0
2016-02-16T09:00:59.809Z,0
2016-02-16T09:01:59.904Z,0
2016-02-16T09:02:59.907Z,0
2016-02-16T09:03:59.972Z,0
2016-02-16T09:05:00.006Z,0
2016-02-16T09:06:00.072Z,0
2016-02-16T09:07:00.106Z,0
2016-02-16T09:08:00.155Z,0
2016-02-16T09:09:00.205Z,5
2016-02-16T09:10:00.254Z,5
2016-02-16T09:11:00.289Z,5
2016-02-16T09:12:00.353Z,5
2016-02-16T09:13:00.387Z,5
2016-02-16T09:14:00.437Z,5
2016-02-16T09:15:00.502Z,5
2016-02-16T09:16:00.520Z,5
2016-02-16T09:17:00.632Z,5
2016-02-16T09:18:00.635Z,5
2016-02-16T09:19:00.669Z,5
2016-02-16T09:20:00.718Z,5
2016-02-16T09:21:00.784Z,5
2016-02-16T09:22:00.818Z,10
2016-02-16T09:23:00.868Z,10
2016-02-16T09:24:00.761Z,10
2016-02-16T09:25:01.091Z,10
2016-02-16T09:26:01.016Z,10
2016-02-16T09:27:01.082Z,10
2016-02-16T09:28:01.115Z,10
2016-02-16T09:29:01.165Z,10
2016-02-16T09:30:01.465Z,15
2016-02-16T09:31:01.264Z,15
2016-02-16T09:32:01.298Z,15
2016-02-16T09:33:01.395Z,15
2016-02-16T09:34:01.632Z,15
2016-02-16T09:35:01.446Z,15
2016-02-16T09:36:01.512Z,15
2016-02-16T09:37:01.624Z,15
2016-02-16T09:38:01.612Z,15
2016-02-16T09:39:01.661Z,15
2016-02-16T09:40:01.726Z,15
2016-02-16T09:41:01.759Z,15
2016-02-16T09:42:01.794Z,15
2016-02-16T09:43:01.125Z,15
2016-02-16T09:44:01.909Z,5
2016-02-16T09:45:01.942Z,5
2016-02-16T09:46:02.008Z,5
2016-02-16T09:47:02.057Z,5
2016-02-16T09:48:02.153Z,5
2016-02-16T09:49:02.202Z,5
2016-02-16T09:50:02.253Z,5
2016-02-16T09:51:02.272Z,5
2016-02-16T09:52:02.336Z,5
2016-02-16T09:53:02.370Z,5
2016-02-16T09:54:02.419Z,5
2016-02-16T09:55:02.454Z,5
2016-02-16T09:56:02.534Z,10
2016-02-16T09:57:02.568Z,10
2016-02-16T09:58:02.618Z,5
2016-02-16T09:59:02.668Z,5
2016-02-16T10:00:02.702Z,5
2016-02-16T10:01:02.735Z,5
2016-02-16T10:02:02.801Z,5
2016-02-16T10:03:02.693Z,5
2016-02-16T10:04:02.899Z,5
2016-02-16T10:05:02.996Z,5
2016-02-16T10:06:03.030Z,5
2016-02-16T10:07:03.079Z,10
2016-02-16T10:08:03.082Z,5
2016-02-16T10:09:03.194Z,10
2016-02-16T10:10:03.197Z,5
2016-02-16T10:11:03.247Z,5
2016-02-16T10:12:03.295Z,10
2016-02-16T10:13:03.346Z,10
2016-02-16T10:14:03.412Z,10
2016-02-16T10:15:03.445Z,10
2016-02-16T10:16:03.526Z,0
2016-02-16T10:17:03.544Z,5
2016-02-16T10:18:03.687Z,10
2016-02-16T10:19:03.628Z,10
2016-02-16T10:20:03.709Z,10
2016-02-16T10:21:03.774Z,10
2016-02-16T10:22:03.839Z,5
2016-02-16T10:23:03.841Z,5
2016-02-16T10:24:03.907Z,5
2016-02-16T10:25:03.940Z,5
2016-02-16T10:26:04.005Z,5
2016-02-16T10:27:04.040Z,5
2016-02-16T10:28:04.089Z,5
2016-02-16T10:29:04.171Z,5
2016-02-16T10:30:04.188Z,5
2016-02-16T10:31:04.254Z,5
2016-02-16T10:32:04.318Z,5
2016-02-16T10:33:04.337Z,5
2016-02-16T10:34:04.386Z,5
2016-02-16T10:35:04.452Z,5
2016-02-16T10:36:04.361Z,5
2016-02-16T10:37:04.379Z,5
2016-02-16T10:38:04.631Z,5
2016-02-16T10:39:04.759Z,5
2016-02-16T10:40:04.731Z,5
2016-02-16T10:41:04.748Z,5
2016-02-16T10:42:04.814Z,5
2016-02-16T10:43:04.848Z,5
2016-02-16T10:44:04.882Z,5
2016-02-16T10:45:04.932Z,5
2016-02-16T10:46:05.012Z,5
2016-02-16T10:47:05.061Z,5
2016-02-16T10:48:05.097Z,5
2016-02-16T10:49:05.178Z,5
2016-02-16T10:50:05.195Z,5
2016-02-16T10:51:05.276Z,5
2016-02-16T10:52:05.294Z,5
2016-02-16T10:53:05.360Z,5
2016-02-16T10:54:05.393Z,5
2016-02-16T10:55:05.443Z,0
2016-02-16T10:56:05.525Z,0
2016-02-16T10:57:05.542Z,0
2016-02-16T10:58:05.592Z,0
2016-02-16T10:59:05.688Z,0
2016-02-16T11:00:05.707Z,0
2016-02-16T11:01:05.740Z,0
2016-02-16T11:02:05.806Z,0
2016-02-16T11:03:05.855Z,0
2016-02-16T11:04:05.890Z,0
2016-02-16T11:05:05.970Z,0
2016-02-16T11:06:06.004Z,0
2016-02-16T11:07:06.053Z,0
2016-02-16T11:08:06.119Z,0
2016-02-16T11:09:06.137Z,0
2016-02-16T11:10:06.218Z,0
2016-02-16T11:11:06.252Z,0
2016-02-16T11:12:06.332Z,0
2016-02-16T11:13:06.382Z,0
2016-02-16T11:14:06.400Z,0
2016-02-16T11:15:06.450Z,0
2016-02-16T11:16:06.499Z,0
2016-02-16T11:17:06.409Z,0
2016-02-16T11:18:06.990Z,0
2016-02-16T11:19:06.664Z,0
2016-02-16T11:20:06.698Z,0
2016-02-16T11:21:06.778Z,0
2016-02-16T11:22:06.813Z,0
2016-02-16T11:23:06.909Z,0
2016-02-16T11:24:06.928Z,0
2016-02-16T11:25:06.977Z,0
2016-02-16T11:26:07.417Z,0
2016-02-16T11:27:07.061Z,0
2016-02-16T11:28:07.130Z,0
2016-02-16T11:29:07.165Z,0
2016-02-16T11:30:07.213Z,0
2016-02-16T11:31:07.295Z,0
2016-02-16T11:32:07.329Z,0
2016-02-16T11:33:07.425Z,0
2016-02-16T11:34:07.412Z,0
2016-02-16T11:35:07.462Z,0
2016-02-16T11:36:07.542Z,0
2016-02-16T11:37:07.576Z,0
2016-02-16T11:38:07.642Z,0
2016-02-16T11:39:07.723Z,0
2016-02-16T11:40:07.710Z,0
2016-02-16T11:41:07.759Z,0
2016-02-16T11:42:07.825Z,0
2016-02-16T11:43:07.905Z,0
2016-02-16T11:44:07.970Z,0
2016-02-16T11:45:07.973Z,0
2016-02-16T11:46:08.039Z,0
2016-02-16T11:47:07.353Z,0
2016-02-16T11:48:08.122Z,0
2016-02-16T11:49:08.233Z,0
2016-02-16T11:50:08.267Z,0
2016-02-16T11:51:08.270Z,0
2016-02-16T11:52:08.367Z,0
2016-02-16T11:53:08.385Z,0
2016-02-16T11:54:08.450Z,0
2016-02-16T11:55:08.469Z,0
2016-02-16T11:56:08.565Z,0
2016-02-16T11:57:08.615Z,0
2016-02-16T11:58:08.805Z,0
2016-02-16T11:59:08.730Z,0
2016-02-16T12:00:08.716Z,0
2016-02-16T12:01:08.797Z,0
2016-02-16T12:02:08.831Z,0
2016-02-16T12:03:08.882Z,0
2016-02-16T12:04:08.946Z,0
2016-02-16T12:05:09.007Z,0
2016-02-16T12:06:09.112Z,0
2016-02-16T12:07:09.101Z,0
2016-02-16T12:08:09.165Z,0
2016-02-16T12:09:09.199Z,0
2016-02-16T12:10:09.780Z,0
2016-02-16T12:11:09.315Z,0
2016-02-16T12:12:09.348Z,0
2016-02-16T12:13:09.429Z,0
2016-02-16T12:14:09.448Z,0
2016-02-16T12:15:09.513Z,0
2016-02-16T12:16:09.578Z,0
2016-02-16T12:17:09.612Z,0
2016-02-16T12:18:09.631Z,0
2016-02-16T12:19:09.742Z,0
2016-02-16T12:20:09.792Z,0
2016-02-16T12:21:09.794Z,0
2016-02-16T12:22:09.875Z,0
2016-02-16T12:23:09.895Z,0
2016-02-16T12:24:09.990Z,0
2016-02-16T12:25:09.993Z,0
2016-02-16T12:26:10.058Z,0
2016-02-16T12:27:10.122Z,0
2016-02-16T12:28:10.189Z,0
2016-02-16T12:29:10.238Z,0
2016-02-16T12:30:10.272Z,0
2016-02-16T12:31:10.306Z,0
2016-02-16T12:32:10.402Z,0
2016-02-16T12:33:10.421Z,0
2016-02-16T12:34:10.470Z,0
2016-02-16T12:35:10.519Z,0
2016-02-16T12:36:10.570Z,0
2016-02-16T12:37:10.650Z,0
2016-02-16T12:38:10.684Z,0
2016-02-16T12:39:10.718Z,0
2016-02-16T12:40:10.782Z,0
2016-02-16T12:41:10.817Z,0
2016-02-16T12:42:10.867Z,0
2016-02-16T12:43:10.916Z,0
2016-02-16T12:44:10.996Z,0
2016-02-16T12:45:10.860Z,0
2016-02-16T12:46:11.096Z,0
2016-02-16T12:47:11.114Z,0
2016-02-16T12:48:11.179Z,0
2016-02-16T12:49:11.229Z,0
2016-02-16T12:50:11.247Z,0
2016-02-16T12:51:11.345Z,0
2016-02-16T12:52:11.362Z,0
2016-02-16T12:53:11.428Z,0
2016-02-16T12:54:11.461Z,0
2016-02-16T12:55:11.573Z,0
2016-02-16T12:56:11.545Z,0
2016-02-16T12:57:11.656Z,0
2016-02-16T12:58:11.676Z,0
2016-02-16T12:59:11.725Z,0
2016-02-16T13:00:11.774Z,0
2016-02-16T13:01:11.839Z,0
2016-02-16T13:02:11.889Z,0
2016-02-16T13:03:11.938Z,0
2016-02-16T13:04:11.973Z,0
2016-02-16T13:05:12.053Z,0
2016-02-16T13:06:12.072Z,0
2016-02-16T13:07:11.996Z,0
2016-02-16T13:08:12.186Z,0
2016-02-16T13:09:12.235Z,0
2016-02-16T13:10:12.270Z,0
2016-02-16T13:11:12.319Z,0
2016-02-16T13:12:12.368Z,0
2016-02-16T13:13:12.450Z,0
2016-02-16T13:14:12.499Z,0
2016-02-16T13:15:12.534Z,0
2016-02-16T13:16:12.598Z,0
2016-02-16T13:17:12.617Z,0
2016-02-16T13:18:12.651Z,0
2016-02-16T13:19:12.715Z,0
2016-02-16T13:20:12.765Z,0
2016-02-16T13:21:12.815Z,0
2016-02-16T13:22:12.865Z,0
2016-02-16T13:23:12.945Z,0
2016-02-16T13:24:12.964Z,0
2016-02-16T13:25:13.013Z,0
2016-02-16T13:26:13.157Z,0
2016-02-16T13:27:13.112Z,0
2016-02-16T13:28:13.178Z,0
2016-02-16T13:29:13.259Z,0
2016-02-16T13:30:13.325Z,0
2016-02-16T13:31:13.327Z,0
2016-02-16T13:32:13.376Z,0
2016-02-16T13:33:13.425Z,0
2016-02-16T13:34:13.476Z,0
2016-02-16T13:35:13.525Z,0
2016-02-16T13:36:13.590Z,0
2016-02-16T13:37:13.631Z,0
2016-02-16T13:38:13.665Z,0
2016-02-16T13:39:13.685Z,0
2016-02-16T13:40:13.719Z,0
2016-02-16T13:41:13.738Z,0
2016-02-16T13:42:13.779Z,0
2016-02-16T13:43:13.838Z,0
2016-02-16T13:44:13.898Z,0
2016-02-16T13:45:13.958Z,0
2016-02-16T13:46:13.986Z,0
2016-02-16T13:47:14.032Z,0
2016-02-16T13:48:14.096Z,0
2016-02-16T13:49:14.159Z,0
2016-02-16T13:50:14.176Z,0
2016-02-16T13:51:14.223Z,0
2016-02-16T13:52:14.272Z,0
2016-02-16T13:53:14.336Z,0
2016-02-16T13:54:14.385Z,0
2016-02-16T13:55:14.403Z,0
2016-02-16T13:56:14.466Z,0
2016-02-16T13:57:14.516Z,0
2016-02-16T13:58:14.393Z,0
2016-02-16T13:59:14.645Z,0
2016-02-16T14:00:14.663Z,0
2016-02-16T14:01:14.697Z,0
2016-02-16T14:02:14.778Z,0
2016-02-16T14:03:14.827Z,0
2016-02-16T14:04:14.861Z,0
2016-02-16T14:05:14.911Z,0
2016-02-16T14:06:14.961Z,0
2016-02-16T14:07:15.041Z,0
2016-02-16T14:08:15.091Z,0
2016-02-16T14:09:15.140Z,0
2016-02-16T14:10:15.557Z,0
2016-02-16T14:11:15.118Z,0
2016-02-16T14:12:15.129Z,0
2016-02-16T14:13:15.388Z,0
2016-02-16T14:14:15.437Z,0
2016-02-16T14:15:15.424Z,0
2016-02-16T14:16:15.459Z,0
2016-02-16T14:17:15.524Z,0
2016-02-16T14:18:15.573Z,0
2016-02-16T14:19:15.607Z,0
2016-02-16T14:20:15.688Z,0
2016-02-16T14:21:15.769Z,0
2016-02-16T14:22:15.765Z,0
2016-02-16T14:23:15.814Z,0
2016-02-16T14:24:15.879Z,0
2016-02-16T14:25:15.914Z,0
2016-02-16T14:26:15.963Z,0
2016-02-16T14:27:16.122Z,0
2016-02-16T14:28:16.078Z,0
2016-02-16T14:29:16.128Z,0
2016-02-16T14:30:16.193Z,0
2016-02-16T14:31:16.274Z,0
2016-02-16T14:32:16.276Z,0
2016-02-16T14:33:16.310Z,0
2016-02-16T14:34:16.375Z,0
2016-02-16T14:35:16.425Z,0
2016-02-16T14:36:16.490Z,0
2016-02-16T14:37:16.508Z,0
2016-02-16T14:38:16.573Z,0
2016-02-16T14:39:16.670Z,0
2016-02-16T14:40:16.703Z,0
2016-02-16T14:41:16.784Z,0
2016-02-16T14:42:16.819Z,0
2016-02-16T14:43:16.806Z,0
2016-02-16T14:44:16.933Z,0
2016-02-16T14:45:16.967Z,0
2016-02-16T14:46:17.048Z,0